Terminal Aerodrome Forecast
Issued by NWS

Current Version | Previous Version | Text Only | Print | Product List | Glossary On
Versions: 1 2 3 4 5 6 7 8 9 10 11 12 13 14 15 16 17 18
000
FTUS41 KGYX 011120
TAFAUG
TAF
KAUG 011120Z 0112/0212 30005KT P6SM SKC
     FM011500 35005KT P6SM SCT100
     FM020000 21003KT P6SM SCT100
      TEMPO 0210/0212 3SM BR SCT001=

USA.gov is the U.S. government's official web portal to all federal, state and local government web resources and services.